Time;durP1;ratioP1;P1;durP2;ratioP2;P2;SDS_P1;SDS_P2;PMS_P1;PMS_P2;Temp;Humidity;BMP_temperature;BMP_pressure;BME280_temperature;BME280_humidity;BME280_pressure;Samples;Min_cycle;Max_cycle;Signal;HPM_P1;HPM_P2
2021/11/05 00:01:23;;;;;;;;;5.50;4.75;;;;;9.85;71.42;101569.63;6317717;22;45691;-91
2021/11/05 00:03:49;;;;;;;;;5.00;5.00;;;;;9.93;71.63;101575.88;6288918;22;46930;-90
2021/11/05 00:06:14;;;;;;;;;8.25;6.50;;;;;9.85;71.27;101573.13;6291445;22;45216;-91
2021/11/05 00:08:42;;;;;;;;;5.50;4.50;;;;;9.90;71.36;101575.84;6290766;22;45420;-90
2021/11/05 00:11:08;;;;;;;;;7.25;6.50;;;;;10.02;71.49;101609.28;6290520;22;44979;-90
2021/11/05 00:13:33;;;;;;;;;9.25;7.25;;;;;9.88;71.84;101588.06;6313942;22;47128;-91
2021/11/05 00:15:59;;;;;;;;;9.75;8.75;;;;;10.05;71.66;101614.59;6290228;22;45263;-89
2021/11/05 00:18:24;;;;;;;;;7.50;7.00;;;;;9.98;71.42;101594.34;6286786;22;45224;-91
2021/11/05 00:20:50;;;;;;;;;10.50;8.00;;;;;10.07;71.53;101620.75;6316805;22;45076;-91
2021/11/05 00:23:16;;;;;;;;;9.00;8.00;;;;;10.07;71.27;101612.84;6285581;22;47246;-89
2021/11/05 00:25:43;;;;;;;;;8.75;7.00;;;;;9.93;71.49;101589.91;6288132;22;45169;-91
2021/11/05 00:28:09;;;;;;;;;5.50;4.00;;;;;9.97;71.47;101596.09;6286457;22;45340;-90
2021/11/05 00:30:34;;;;;;;;;8.25;8.25;;;;;9.91;71.51;101583.72;6314032;22;45466;-91
2021/11/05 00:33:00;;;;;;;;;4.25;4.25;;;;;9.87;71.66;101578.44;6288277;22;47092;-91
2021/11/05 00:35:25;;;;;;;;;9.00;5.00;;;;;9.87;71.36;101587.19;6313601;22;45250;-90
2021/11/05 00:37:51;;;;;;;;;4.25;4.00;;;;;10.01;71.41;101623.31;6285787;22;45349;-91
2021/11/05 00:40:17;;;;;;;;;4.00;4.00;;;;;9.96;71.50;101610.09;6314314;22;45342;-91
2021/11/05 00:42:43;;;;;;;;;11.25;7.00;;;;;9.97;72.00;101619.78;6283828;22;47842;-91
2021/11/05 00:45:10;;;;;;;;;8.25;6.00;;;;;9.93;71.26;101615.31;6315531;22;45180;-91
2021/11/05 00:47:36;;;;;;;;;5.00;5.00;;;;;9.74;71.68;101594.91;6284852;22;45184;-90
2021/11/05 00:50:04;;;;;;;;;7.00;7.00;;;;;9.89;71.69;101624.03;6286010;22;45420;-89
2021/11/05 00:52:29;;;;;;;;;6.00;4.75;;;;;9.79;71.63;101612.50;6312227;22;45330;-89
2021/11/05 00:54:54;;;;;;;;;5.00;4.00;;;;;9.84;71.85;101623.97;6314623;22;45518;-89
2021/11/05 00:57:20;;;;;;;;;2.25;1.75;;;;;9.78;72.06;101621.25;6311217;22;45341;-88
2021/11/05 00:59:45;;;;;;;;;10.25;7.50;;;;;9.70;71.79;101608.03;6285944;22;45374;-88
2021/11/05 01:02:12;;;;;;;;;3.50;3.00;;;;;9.72;72.04;101610.66;6310474;22;46648;-91
2021/11/05 01:04:37;;;;;;;;;6.00;5.50;;;;;9.83;71.90;101631.84;6287659;22;45358;-90
2021/11/05 01:07:03;;;;;;;;;5.00;5.00;;;;;9.85;71.96;101649.41;6284480;22;45289;-90
2021/11/05 01:09:28;;;;;;;;;4.25;2.50;;;;;9.80;72.02;101632.69;6288437;22;45354;-90
2021/11/05 01:11:54;;;;;;;;;5.00;4.00;;;;;9.66;72.06;101615.84;6311704;22;48316;-91
2021/11/05 01:14:19;;;;;;;;;3.25;3.25;;;;;9.75;71.75;101631.72;6314488;22;45294;-90
2021/11/05 01:16:45;;;;;;;;;4.25;4.25;;;;;9.69;72.04;101623.75;6313673;22;45257;-91
2021/11/05 01:19:11;;;;;;;;;3.25;2.00;;;;;9.87;71.96;101658.22;6289381;22;45775;-90
2021/11/05 01:21:37;;;;;;;;;6.75;5.00;;;;;9.83;71.67;101648.50;6287091;22;46477;-90
2021/11/05 01:24:03;;;;;;;;;6.50;5.00;;;;;9.89;71.81;101659.13;6315843;22;45883;-90
2021/11/05 01:26:29;;;;;;;;;4.50;4.50;;;;;9.71;71.69;101630.81;6286596;22;45151;-89
2021/11/05 01:28:55;;;;;;;;;6.00;4.25;;;;;9.87;71.77;101663.47;6288140;22;45175;-89
2021/11/05 01:31:21;;;;;;;;;8.25;6.00;;;;;9.87;71.83;101674.00;6313138;22;47387;-90
2021/11/05 01:33:47;;;;;;;;;5.25;5.25;;;;;9.79;71.77;101653.72;6315587;22;45378;-90
2021/11/05 01:36:13;;;;;;;;;3.25;3.25;;;;;9.87;71.60;101673.09;6312669;22;45215;-90
2021/11/05 01:38:42;;;;;;;;;5.00;4.00;;;;;9.63;71.46;101642.97;6290032;22;45290;-90
2021/11/05 01:41:08;;;;;;;;;5.00;5.00;;;;;9.76;71.58;101664.19;6286087;22;46962;-89
2021/11/05 01:43:34;;;;;;;;;6.50;6.50;;;;;9.79;71.74;101672.13;6288731;22;45203;-91
2021/11/05 01:46:00;;;;;;;;;4.75;4.25;;;;;9.82;71.49;101686.19;6286656;22;45338;-89
2021/11/05 01:48:25;;;;;;;;;7.00;7.00;;;;;9.61;71.61;101649.06;6286735;22;45180;-89
2021/11/05 01:50:54;;;;;;;;;7.75;4.00;;;;;9.80;71.61;101679.13;6311614;22;47094;-89
2021/11/05 01:53:20;;;;;;;;;7.75;5.00;;;;;9.62;71.56;101662.25;6287229;22;45184;-91
2021/11/05 01:55:46;;;;;;;;;3.25;2.25;;;;;9.66;72.20;101671.94;6286735;22;45148;-90
2021/11/05 01:58:12;;;;;;;;;2.00;2.00;;;;;9.73;71.66;101688.69;6288790;22;45746;-90
2021/11/05 02:00:39;;;;;;;;;5.50;4.00;;;;;9.56;71.63;101664.75;6286916;22;46920;-89
2021/11/05 02:03:05;;;;;;;;;5.50;4.00;;;;;9.62;71.76;101674.47;6287560;22;45184;-90
2021/11/05 02:05:30;;;;;;;;;7.75;5.00;;;;;9.62;71.52;101682.38;6312627;22;45379;-89
2021/11/05 02:07:57;;;;;;;;;4.25;4.25;;;;;9.65;71.81;101688.56;6314371;22;45286;-89
2021/11/05 02:10:25;;;;;;;;;7.00;4.50;;;;;9.59;71.86;101677.94;6286793;22;47339;-89
2021/11/05 02:12:53;;;;;;;;;7.75;3.75;;;;;9.48;71.56;101667.25;6314456;22;45159;-90
2021/11/05 02:15:19;;;;;;;;;4.50;4.50;;;;;9.54;71.43;101684.88;6288060;22;45207;-91
2021/11/05 02:17:46;;;;;;;;;5.00;2.25;;;;;9.45;71.53;101685.63;6290771;22;45176;-91
2021/11/05 02:20:15;;;;;;;;;4.00;4.00;;;;;9.39;71.50;101672.38;6295824;22;47198;-88
2021/11/05 02:22:41;;;;;;;;;3.00;3.00;;;;;9.53;71.72;101709.41;6297836;22;45799;-88
2021/11/05 02:25:09;;;;;;;;;7.00;5.00;;;;;9.46;71.52;101678.59;6299779;22;45155;-89
2021/11/05 02:27:37;;;;;;;;;4.00;4.00;;;;;9.52;71.70;101699.75;6287783;22;45237;-90
2021/11/05 02:30:05;;;;;;;;;7.00;5.25;;;;;9.44;71.47;101682.97;6287186;22;46912;-90
2021/11/05 02:32:30;;;;;;;;;7.25;7.00;;;;;9.47;71.32;101691.78;6287992;22;45198;-89
2021/11/05 02:34:56;;;;;;;;;3.75;3.25;;;;;9.55;71.65;101718.19;6286853;22;45366;-90
2021/11/05 02:37:28;;;;;;;;;8.50;5.00;;;;;9.49;71.23;101711.09;6314810;22;45397;-91
2021/11/05 02:39:54;;;;;;;;;3.75;3.25;;;;;9.53;71.30;101719.03;6316391;22;45456;-90
2021/11/05 02:42:20;;;;;;;;;6.75;3.00;;;;;9.48;71.61;101718.94;6321477;22;45227;-89
2021/11/05 02:44:47;;;;;;;;;6.50;4.75;;;;;9.45;71.52;101721.53;6291768;22;45149;-90
2021/11/05 02:47:15;;;;;;;;;8.00;4.00;;;;;9.45;71.49;101717.16;6293098;22;46121;-90
2021/11/05 02:49:41;;;;;;;;;3.50;2.50;;;;;9.36;71.39;101703.00;6314665;22;47265;-88
2021/11/05 02:52:08;;;;;;;;;4.50;3.00;;;;;9.31;71.98;101695.03;6289213;22;45322;-89
2021/11/05 02:54:34;;;;;;;;;7.25;3.00;;;;;9.44;71.35;101723.28;6315026;22;45180;-90
2021/11/05 02:57:00;;;;;;;;;3.75;3.75;;;;;9.44;71.41;101730.28;6322010;22;45453;-90
2021/11/05 02:59:25;;;;;;;;;5.50;3.25;;;;;9.42;71.66;101725.00;6325856;22;47000;-87
2021/11/05 03:01:50;;;;;;;;;7.00;3.75;;;;;9.37;71.53;101728.41;6323966;22;44719;-88
2021/11/05 03:04:16;;;;;;;;;3.50;3.50;;;;;9.28;71.63;101711.63;6294920;22;45113;-89
2021/11/05 03:06:43;;;;;;;;;4.00;3.25;;;;;9.38;71.62;101720.56;6295012;22;45251;-89
2021/11/05 03:09:11;;;;;;;;;5.00;4.25;;;;;9.37;71.45;101723.16;6325500;22;46332;-88
2021/11/05 03:11:37;;;;;;;;;4.25;4.00;;;;;9.36;71.80;101724.03;6300697;22;44726;-88
2021/11/05 03:14:07;;;;;;;;;3.25;3.25;;;;;9.44;71.71;101738.19;6329940;22;44663;-90
2021/11/05 03:16:34;;;;;;;;;4.25;3.00;;;;;9.35;71.47;101717.84;6296432;22;45091;-90
2021/11/05 03:19:00;;;;;;;;;5.50;5.50;;;;;9.43;71.48;101741.66;6288963;22;47759;-91
2021/11/05 03:21:25;;;;;;;;;3.25;2.50;;;;;9.42;71.50;101746.03;6316955;22;45338;-90
2021/11/05 03:23:51;;;;;;;;;8.75;5.50;;;;;9.43;71.35;101744.28;6286853;22;45385;-91
2021/11/05 03:26:17;;;;;;;;;3.00;3.00;;;;;9.41;71.48;101744.25;6315978;22;45283;-90
2021/11/05 03:28:42;;;;;;;;;6.75;3.25;;;;;9.52;71.29;101762.84;6285395;22;47187;-90
2021/11/05 03:31:08;;;;;;;;;2.75;2.75;;;;;9.41;71.24;101738.09;6288306;22;45252;-89
2021/11/05 03:33:34;;;;;;;;;4.25;3.00;;;;;9.47;71.43;101751.38;6312285;22;45192;-90
2021/11/05 03:35:59;;;;;;;;;3.00;2.00;;;;;9.53;71.36;101761.09;6313687;22;45303;-91
2021/11/05 03:38:24;;;;;;;;;6.00;6.00;;;;;9.51;71.57;101763.69;6310431;22;46985;-90
2021/11/05 03:40:50;;;;;;;;;6.75;4.00;;;;;9.44;71.43;101749.56;6287865;22;45596;-91
2021/11/05 03:43:16;;;;;;;;;4.00;4.00;;;;;9.58;71.39;101776.09;6284081;22;45145;-91
2021/11/05 03:45:41;;;;;;;;;4.00;4.00;;;;;9.46;71.07;101755.75;6315111;22;45134;-90
2021/11/05 03:48:07;;;;;;;;;5.25;4.00;;;;;9.54;71.23;101778.63;6314288;22;45499;-90
2021/11/05 03:50:35;;;;;;;;;3.00;3.00;;;;;9.53;71.21;101776.88;6313103;22;45102;-91
2021/11/05 03:53:00;;;;;;;;;4.50;3.75;;;;;9.50;71.27;101773.31;6314304;22;45219;-89
2021/11/05 03:55:26;;;;;;;;;3.75;3.75;;;;;9.52;71.29;101783.88;6285723;22;45252;-89
2021/11/05 03:57:51;;;;;;;;;3.75;3.75;;;;;9.42;71.47;101767.03;6285592;22;47168;-91
2021/11/05 04:00:17;;;;;;;;;6.75;5.25;;;;;9.49;71.20;101783.81;6286374;22;45266;-89
2021/11/05 04:02:43;;;;;;;;;4.25;2.75;;;;;9.58;71.30;101797.13;6316201;22;45192;-88
2021/11/05 04:05:11;;;;;;;;;7.25;5.25;;;;;9.41;71.27;101775.81;6289141;22;45332;-91
2021/11/05 04:07:36;;;;;;;;;9.25;7.75;;;;;9.48;71.22;101790.78;6279405;22;46892;-91
2021/11/05 04:10:03;;;;;;;;;3.00;3.00;;;;;9.59;71.43;101805.88;6280800;22;45194;-91
2021/11/05 04:12:28;;;;;;;;;4.75;3.50;;;;;9.62;71.28;101813.81;6281760;22;45262;-90
2021/11/05 04:14:54;;;;;;;;;6.00;6.00;;;;;9.48;71.26;101795.19;6281124;22;45133;-90
2021/11/05 04:17:19;;;;;;;;;4.00;2.00;;;;;9.54;71.20;101804.91;6282823;22;46911;-89
2021/11/05 04:19:45;;;;;;;;;3.25;3.25;;;;;9.68;71.08;101833.22;6281787;22;45260;-90
2021/11/05 04:22:11;;;;;;;;;7.50;6.50;;;;;9.55;71.17;101817.22;6284399;22;45341;-89
2021/11/05 04:24:37;;;;;;;;;9.00;5.00;;;;;9.56;70.76;101811.97;6310509;22;45474;-92
2021/11/05 04:27:03;;;;;;;;;6.00;4.50;;;;;9.64;71.24;101834.03;6289346;22;48115;-90
2021/11/05 04:29:30;;;;;;;;;8.00;8.00;;;;;9.64;71.23;101835.78;6286310;22;45348;-90
2021/11/05 04:31:56;;;;;;;;;5.00;5.00;;;;;9.65;70.96;101840.16;6283578;22;45200;-90
2021/11/05 04:34:21;;;;;;;;;2.00;2.00;;;;;9.60;71.00;101828.69;6282963;22;45166;-90
2021/11/05 04:36:47;;;;;;;;;6.00;4.00;;;;;9.71;70.82;101864.84;6308086;22;48118;-89
2021/11/05 04:39:21;;;;;;;;;4.00;4.00;;;;;9.65;70.90;101846.31;6256243;22;45335;-90
2021/11/05 04:41:47;;;;;;;;;4.00;3.00;;;;;9.67;70.98;101848.97;6285626;22;45222;-90
2021/11/05 04:44:14;;;;;;;;;4.00;4.00;;;;;9.68;70.72;101850.75;6257890;22;45319;-89
2021/11/05 04:46:42;;;;;;;;;5.00;5.00;;;;;9.72;70.90;101868.34;6288435;22;47592;-89
2021/11/05 04:49:08;;;;;;;;;9.00;6.50;;;;;9.69;70.97;101860.41;6263813;22;45341;-91
2021/11/05 04:51:36;;;;;;;;;8.00;5.50;;;;;9.57;70.68;101849.66;6269381;22;45347;-90
2021/11/05 04:54:02;;;;;;;;;5.00;5.00;;;;;9.71;70.88;101877.97;6270204;22;45207;-91
2021/11/05 04:56:30;;;;;;;;;5.25;4.00;;;;;9.68;70.90;101874.41;6284309;22;47050;-90
2021/11/05 04:58:55;;;;;;;;;7.00;7.00;;;;;9.72;70.82;101882.38;6256938;22;45394;-91
2021/11/05 05:01:21;;;;;;;;;5.25;5.00;;;;;9.72;70.94;101879.75;6255593;22;45358;-90
2021/11/05 05:03:47;;;;;;;;;4.25;3.00;;;;;9.70;70.60;101872.69;6255258;22;45561;-92
2021/11/05 05:06:12;;;;;;;;;9.25;4.00;;;;;9.77;70.45;101881.56;6287739;22;48144;-90
2021/11/05 05:08:39;;;;;;;;;6.50;3.50;;;;;9.74;70.32;101879.78;6285816;22;45368;-90
2021/11/05 05:11:04;;;;;;;;;4.25;3.00;;;;;9.84;70.45;101888.72;6285811;22;45367;-90
2021/11/05 05:13:30;;;;;;;;;6.50;4.50;;;;;9.86;70.44;101893.16;6285929;22;45215;-91
2021/11/05 05:15:55;;;;;;;;;3.75;3.25;;;;;9.86;70.49;101894.88;6314285;22;45204;-91
2021/11/05 05:18:21;;;;;;;;;5.50;4.50;;;;;9.80;70.10;101884.25;6324492;22;44626;-90
2021/11/05 05:20:46;;;;;;;;;2.50;2.50;;;;;9.90;70.29;101907.25;6328303;22;44728;-90
2021/11/05 05:23:13;;;;;;;;;3.25;2.75;;;;;9.89;70.16;101902.81;6292209;22;45136;-90
2021/11/05 05:25:39;;;;;;;;;4.00;3.75;;;;;9.75;70.11;101880.66;6286894;22;47179;-92
2021/11/05 05:28:05;;;;;;;;;4.00;2.00;;;;;9.90;69.83;101908.13;6310365;22;45196;-91
2021/11/05 05:30:32;;;;;;;;;3.75;3.00;;;;;9.86;69.73;101890.53;6315683;22;45330;-91
2021/11/05 05:32:58;;;;;;;;;3.00;3.00;;;;;9.86;69.90;101913.28;6287268;22;45495;-91
2021/11/05 05:35:24;;;;;;;;;5.75;5.00;;;;;9.89;69.74;101911.63;6288272;22;46887;-91
2021/11/05 05:37:52;;;;;;;;;5.00;4.75;;;;;9.84;69.84;101905.41;6313804;22;45261;-90
2021/11/05 05:40:18;;;;;;;;;3.25;2.25;;;;;9.78;69.69;101905.25;6290656;22;45234;-90
2021/11/05 05:42:44;;;;;;;;;4.00;3.50;;;;;9.94;69.48;101927.47;6288451;22;45165;-91
2021/11/05 05:45:10;;;;;;;;;6.00;4.00;;;;;9.89;69.34;101926.50;6292993;22;47032;-90
2021/11/05 05:47:38;;;;;;;;;2.00;2.00;;;;;9.79;69.57;101919.31;6288870;22;45365;-89
2021/11/05 05:50:12;;;;;;;;;3.50;3.00;;;;;9.82;69.38;101927.25;6290430;22;45366;-90
2021/11/05 05:52:37;;;;;;;;;5.00;5.00;;;;;9.73;69.27;101917.47;6288754;22;45388;-90
2021/11/05 05:55:05;;;;;;;;;7.00;5.00;;;;;9.74;69.47;101919.22;6288277;22;47825;-90
2021/11/05 05:57:31;;;;;;;;;5.50;5.00;;;;;9.86;69.50;101944.84;6287783;22;45372;-91
2021/11/05 05:59:57;;;;;;;;;5.50;4.50;;;;;9.94;69.68;101948.50;6317391;22;45176;-90
2021/11/05 06:02:23;;;;;;;;;3.00;2.50;;;;;9.81;68.98;101936.91;6286214;22;44852;-91
2021/11/05 06:04:48;;;;;;;;;5.00;5.00;;;;;9.72;69.38;101928.81;6286028;22;47781;-89
2021/11/05 06:07:15;;;;;;;;;3.00;3.00;;;;;9.66;69.38;101921.72;6285679;22;45402;-90
2021/11/05 06:09:40;;;;;;;;;5.50;4.75;;;;;9.80;68.98;101944.75;6315334;22;45365;-89
2021/11/05 06:12:06;;;;;;;;;3.75;3.00;;;;;9.78;69.22;101947.34;6284249;22;45353;-88
2021/11/05 06:14:32;;;;;;;;;4.00;4.00;;;;;9.69;68.94;101928.78;6286990;22;48198;-89
2021/11/05 06:16:58;;;;;;;;;2.00;2.00;;;;;9.79;69.22;101961.41;6284374;22;45176;-88
2021/11/05 06:19:23;;;;;;;;;2.75;2.25;;;;;9.86;69.10;101979.97;6314111;22;45154;-87
2021/11/05 06:21:49;;;;;;;;;7.00;7.00;;;;;9.76;69.19;101953.44;6311822;22;45416;-88
2021/11/05 06:24:15;;;;;;;;;4.50;4.50;;;;;9.71;69.10;101948.09;6311955;22;47188;-89
2021/11/05 06:26:41;;;;;;;;;2.75;2.75;;;;;9.89;69.00;101973.84;6314776;22;45209;-90
2021/11/05 06:29:06;;;;;;;;;2.75;2.00;;;;;9.83;68.90;101974.59;6295931;22;45234;-89
2021/11/05 06:31:35;;;;;;;;;4.00;3.25;;;;;9.86;68.90;101985.22;6298537;22;44813;-89
2021/11/05 06:34:02;;;;;;;;;5.25;4.00;;;;;9.87;68.74;101986.97;6316747;22;47205;-87
2021/11/05 06:36:28;;;;;;;;;5.00;4.00;;;;;9.90;68.72;101996.69;6313493;22;45393;-88
2021/11/05 06:38:57;;;;;;;;;7.25;7.25;;;;;9.89;68.67;102001.06;6315311;22;45238;-88
2021/11/05 06:41:23;;;;;;;;;6.50;3.75;;;;;9.87;68.82;101994.88;6287690;22;45124;-89
2021/11/05 06:43:52;;;;;;;;;3.00;2.00;;;;;9.76;68.71;101982.38;6285025;22;47999;-88
2021/11/05 06:46:20;;;;;;;;;5.00;3.00;;;;;9.86;68.90;102006.25;6310879;22;45364;-89
2021/11/05 06:49:03;;;;;;;;;3.75;3.75;;;;;9.78;68.74;102009.56;6313583;22;45108;-89
2021/11/05 06:51:31;;;;;;;;;9.25;7.25;;;;;9.74;68.73;101999.88;6287068;22;45374;-88
2021/11/05 06:53:56;;;;;;;;;2.00;2.00;;;;;9.89;68.74;102035.25;6313179;22;45243;-88
2021/11/05 06:56:22;;;;;;;;;9.00;6.50;;;;;9.86;68.70;102026.38;6311024;22;45246;-90
2021/11/05 06:58:48;;;;;;;;;4.75;3.50;;;;;9.87;68.72;102038.72;6285872;22;45167;-89
2021/11/05 07:01:14;;;;;;;;;3.75;3.25;;;;;9.91;68.55;102053.69;6285026;22;45203;-90
2021/11/05 07:03:39;;;;;;;;;5.00;4.00;;;;;9.78;68.43;102033.25;6312826;22;46121;-89
2021/11/05 07:06:08;;;;;;;;;3.50;3.50;;;;;9.85;68.74;102043.03;6283639;22;45287;-88
2021/11/05 07:08:33;;;;;;;;;4.50;4.50;;;;;9.85;68.70;102040.41;6286515;22;45377;-88
2021/11/05 07:11:00;;;;;;;;;3.25;3.00;;;;;9.99;68.77;102073.13;6312887;22;45509;-95
2021/11/05 07:13:26;;;;;;;;;2.00;2.00;;;;;9.86;68.33;102042.16;6312957;22;46943;-87
2021/11/05 07:15:52;;;;;;;;;6.25;4.25;;;;;9.86;68.14;102043.09;6311196;22;45097;-88
2021/11/05 07:18:18;;;;;;;;;7.25;5.00;;;;;9.95;68.16;102068.69;6314035;22;45309;-89
2021/11/05 07:20:44;;;;;;;;;4.00;2.75;;;;;9.99;68.38;102082.78;6283418;22;45504;-88
2021/11/05 07:23:12;;;;;;;;;3.50;3.00;;;;;9.87;68.23;102068.53;6313137;22;46365;-90
2021/11/05 07:25:39;;;;;;;;;3.00;3.00;;;;;9.95;68.23;102084.47;6285519;22;45250;-89
2021/11/05 07:28:05;;;;;;;;;5.00;4.00;;;;;9.95;68.19;102081.84;6284800;22;45344;-94
2021/11/05 07:30:30;;;;;;;;;6.50;4.75;;;;;10.00;68.32;102102.97;6287361;22;45132;-90
2021/11/05 07:32:57;;;;;;;;;5.00;3.50;;;;;9.99;68.10;102099.44;6309798;22;48110;-91
2021/11/05 07:35:22;;;;;;;;;7.75;7.00;;;;;9.86;68.10;102087.78;6312685;22;46024;-88
2021/11/05 07:37:48;;;;;;;;;3.00;2.50;;;;;9.87;68.42;102094.81;6283926;22;45463;-88
2021/11/05 07:40:15;;;;;;;;;3.75;3.75;;;;;9.99;68.29;102119.59;6283962;22;45403;-90
2021/11/05 07:42:41;;;;;;;;;4.50;4.50;;;;;9.95;68.10;102116.03;6288433;22;48135;-88
